createdAt,value
2023-05-07T00:01:13.533Z,98408.78
2023-05-07T00:03:40.220Z,98413.31
2023-05-07T00:06:07.099Z,98406.72
2023-05-07T00:08:34.210Z,98402.63
2023-05-07T00:11:00.816Z,98398.38
2023-05-07T00:13:28.318Z,98400.66
2023-05-07T00:15:54.980Z,98407.13
2023-05-07T00:18:23.527Z,98403.44
2023-05-07T00:20:50.050Z,98399.75
2023-05-07T00:23:16.488Z,98390.94
2023-05-07T00:25:42.926Z,98381.59
2023-05-07T00:28:09.446Z,98383.66
2023-05-07T00:30:35.989Z,98389.19
2023-05-07T00:33:02.614Z,98396.34
2023-05-07T00:35:32.222Z,98402.28
2023-05-07T00:37:59.011Z,98399.19
2023-05-07T00:40:25.597Z,98395.13
2023-05-07T00:42:53.873Z,98399.41
2023-05-07T00:45:20.416Z,98387.56
2023-05-07T00:47:47.553Z,98391.81
2023-05-07T00:50:14.529Z,98376.56
2023-05-07T00:52:42.543Z,98386.00
2023-05-07T00:55:09.268Z,98394.75
2023-05-07T00:57:41.512Z,98388.81
2023-05-07T01:00:10.488Z,98384.31
2023-05-07T01:02:37.376Z,98395.53
2023-05-07T01:05:06.662Z,98388.00
2023-05-07T01:07:35.682Z,98378.63
2023-05-07T01:10:04.107Z,98379.19
2023-05-07T01:12:31.765Z,98379.91
2023-05-07T01:14:59.334Z,98383.41
2023-05-07T01:17:25.999Z,98373.66
2023-05-07T01:19:54.050Z,98374.91
2023-05-07T01:22:34.958Z,98376.69
2023-05-07T01:25:02.820Z,98385.66
2023-05-07T01:27:30.888Z,98382.81
2023-05-07T01:29:57.661Z,98378.72
2023-05-07T01:32:36.722Z,98384.03
2023-05-07T01:35:08.518Z,98373.69
2023-05-07T01:37:35.057Z,98379.59
2023-05-07T01:40:03.461Z,98377.94
2023-05-07T01:42:30.633Z,98379.56
2023-05-07T01:44:57.421Z,98383.56
2023-05-07T01:47:24.952Z,98385.38
2023-05-07T01:49:51.616Z,98380.09
2023-05-07T01:52:18.294Z,98376.84
2023-05-07T01:54:44.863Z,98382.16
2023-05-07T01:57:11.308Z,98385.19
2023-05-07T01:59:41.315Z,98382.13
2023-05-07T02:02:07.948Z,98380.22
2023-05-07T02:04:37.504Z,98383.28
2023-05-07T02:07:04.003Z,98385.94
2023-05-07T02:09:31.022Z,98384.09
2023-05-07T02:11:57.923Z,98385.72
2023-05-07T02:14:24.492Z,98388.41
2023-05-07T02:16:51.055Z,98394.25
2023-05-07T02:19:18.688Z,98395.44
2023-05-07T02:21:45.252Z,98391.34
2023-05-07T02:24:11.710Z,98387.47
2023-05-07T02:26:38.280Z,98384.41
2023-05-07T02:29:04.779Z,98395.00
2023-05-07T02:31:32.168Z,98390.28
2023-05-07T02:33:59.269Z,98398.03
2023-05-07T02:36:26.293Z,98396.16
2023-05-07T02:39:04.836Z,98388.03
2023-05-07T02:41:31.419Z,98396.19
2023-05-07T02:43:57.881Z,98403.06
2023-05-07T02:46:24.959Z,98395.53
2023-05-07T02:48:58.985Z,98397.59
2023-05-07T02:51:27.006Z,98386.63
2023-05-07T02:53:56.050Z,98386.63
2023-05-07T02:56:23.077Z,98383.34
2023-05-07T02:58:49.524Z,98384.56
2023-05-07T03:01:17.672Z,98379.69
2023-05-07T03:03:51.233Z,98379.50
2023-05-07T03:06:17.796Z,98373.81
2023-05-07T03:08:44.929Z,98369.28
2023-05-07T03:11:11.541Z,98369.72
2023-05-07T03:13:37.993Z,98370.78
2023-05-07T03:16:04.646Z,98370.19
2023-05-07T03:18:31.155Z,98375.13
2023-05-07T03:20:58.182Z,98374.50
2023-05-07T03:23:25.197Z,98367.38
2023-05-07T03:25:52.301Z,98361.16
2023-05-07T03:28:19.025Z,98359.94
2023-05-07T03:30:52.009Z,98368.25
2023-05-07T03:33:18.503Z,98366.16
2023-05-07T03:35:45.256Z,98364.72
2023-05-07T03:38:14.496Z,98373.88
2023-05-07T03:40:41.016Z,98369.13
2023-05-07T03:43:07.498Z,98378.78
2023-05-07T03:45:37.678Z,98372.50
2023-05-07T03:48:12.056Z,98368.69
2023-05-07T03:50:39.206Z,98375.56
2023-05-07T03:53:06.648Z,98367.00
2023-05-07T03:55:37.764Z,98372.25
2023-05-07T03:58:04.999Z,98374.47
2023-05-07T04:00:34.520Z,98370.38
2023-05-07T04:03:01.025Z,98377.31
2023-05-07T04:05:31.124Z,98380.59
2023-05-07T04:08:01.506Z,98383.53
2023-05-07T04:10:35.371Z,98384.19
2023-05-07T04:13:06.520Z,98386.03
2023-05-07T04:15:33.441Z,98389.78
2023-05-07T04:18:00.315Z,98382.03
2023-05-07T04:20:27.107Z,98383.91
2023-05-07T04:23:01.619Z,98385.19
2023-05-07T04:25:28.774Z,98382.97
2023-05-07T04:28:01.951Z,98385.44
2023-05-07T04:30:29.923Z,98390.38
2023-05-07T04:32:57.231Z,98387.09
2023-05-07T04:35:26.314Z,98381.84
2023-05-07T04:37:53.262Z,98381.78
2023-05-07T04:40:19.762Z,98391.16
2023-05-07T04:42:46.343Z,98382.09
2023-05-07T04:45:13.598Z,98385.13
2023-05-07T04:47:42.945Z,98385.75
2023-05-07T04:50:10.298Z,98387.44
2023-05-07T04:52:37.746Z,98391.94
2023-05-07T04:55:05.728Z,98391.72
2023-05-07T04:57:37.117Z,98387.94
2023-05-07T05:00:05.313Z,98394.75
2023-05-07T05:02:34.276Z,98404.16
2023-05-07T05:05:02.849Z,98402.34
2023-05-07T05:07:29.480Z,98410.66
2023-05-07T05:09:56.509Z,98403.78
2023-05-07T05:12:23.329Z,98415.56
2023-05-07T05:14:50.228Z,98423.72
2023-05-07T05:17:17.417Z,98427.38
2023-05-07T05:19:44.178Z,98427.31
2023-05-07T05:22:10.645Z,98416.91
2023-05-07T05:24:37.183Z,98417.16
2023-05-07T05:27:03.846Z,98419.44
2023-05-07T05:29:35.088Z,98415.97
2023-05-07T05:32:02.060Z,98420.03
2023-05-07T05:34:30.924Z,98419.84
2023-05-07T05:36:59.501Z,98423.13
2023-05-07T05:39:26.172Z,98421.88
2023-05-07T05:41:52.668Z,98418.59
2023-05-07T05:44:20.654Z,98418.97
2023-05-07T05:46:47.224Z,98409.19
2023-05-07T05:49:14.407Z,98408.53
2023-05-07T05:51:41.184Z,98409.75
2023-05-07T05:54:08.355Z,98407.41
2023-05-07T05:56:34.923Z,98411.56
2023-05-07T05:59:02.053Z,98406.25
2023-05-07T06:01:28.593Z,98416.84
2023-05-07T06:03:57.746Z,98415.72
2023-05-07T06:06:24.266Z,98412.44
2023-05-07T06:08:50.893Z,98419.13
2023-05-07T06:11:21.962Z,98413.78
2023-05-07T06:13:48.469Z,98414.66
2023-05-07T06:16:16.120Z,98412.81
2023-05-07T06:18:43.368Z,98411.03
2023-05-07T06:21:10.956Z,98414.00
2023-05-07T06:23:38.144Z,98419.63
2023-05-07T06:26:05.366Z,98428.25
2023-05-07T06:28:37.555Z,98420.34
2023-05-07T06:31:13.869Z,98428.97
2023-05-07T06:33:41.371Z,98423.47
2023-05-07T06:36:08.087Z,98428.09
2023-05-07T06:38:35.434Z,98431.94
2023-05-07T06:41:01.924Z,98429.19
2023-05-07T06:43:28.527Z,98431.13
2023-05-07T06:46:07.468Z,98433.84
2023-05-07T06:48:35.019Z,98431.78
2023-05-07T06:51:05.428Z,98437.88
2023-05-07T06:53:32.723Z,98432.00
2023-05-07T06:56:01.070Z,98439.03
2023-05-07T06:58:27.716Z,98448.59
2023-05-07T07:00:54.166Z,98440.81
2023-05-07T07:03:21.119Z,98437.38
2023-05-07T07:05:47.978Z,98441.97
2023-05-07T07:08:14.528Z,98447.47
2023-05-07T07:10:41.453Z,98444.31
2023-05-07T07:13:08.004Z,98447.63
2023-05-07T07:15:34.623Z,98451.47
2023-05-07T07:18:01.308Z,98447.66
2023-05-07T07:20:27.831Z,98445.69
2023-05-07T07:22:55.233Z,98444.66
2023-05-07T07:25:21.783Z,98441.50
2023-05-07T07:27:49.341Z,98443.28
2023-05-07T07:30:16.591Z,98444.56
2023-05-07T07:32:46.777Z,98437.28
2023-05-07T07:35:13.300Z,98443.66
2023-05-07T07:37:39.979Z,98443.28
2023-05-07T07:40:07.457Z,98441.69
2023-05-07T07:42:34.506Z,98443.31
2023-05-07T07:45:01.876Z,98447.97
2023-05-07T07:47:32.447Z,98448.72
2023-05-07T07:49:58.922Z,98451.28
2023-05-07T07:52:25.513Z,98446.22
2023-05-07T07:54:52.164Z,98451.81
2023-05-07T07:57:18.960Z,98450.31
2023-05-07T07:59:46.602Z,98438.28
2023-05-07T08:02:15.377Z,98437.97
2023-05-07T08:04:42.895Z,98438.97
2023-05-07T08:07:09.579Z,98446.38
2023-05-07T08:09:40.109Z,98444.75
2023-05-07T08:12:07.949Z,98455.75
2023-05-07T08:14:35.682Z,98454.38
2023-05-07T08:17:02.378Z,98450.72
2023-05-07T08:19:29.072Z,98457.59
2023-05-07T08:21:56.485Z,98456.22
2023-05-07T08:24:24.699Z,98451.44
2023-05-07T08:26:51.816Z,98455.91
2023-05-07T08:29:18.375Z,98462.94
2023-05-07T08:31:44.967Z,98458.50
2023-05-07T08:34:11.438Z,98451.72
2023-05-07T08:36:42.892Z,98455.72
2023-05-07T08:39:11.214Z,98453.13
2023-05-07T08:41:38.516Z,98451.44
2023-05-07T08:44:12.367Z,98458.31
2023-05-07T08:46:40.380Z,98456.44
2023-05-07T08:49:06.979Z,98453.16
2023-05-07T08:51:33.677Z,98459.56
2023-05-07T08:54:00.569Z,98459.47
2023-05-07T08:56:30.887Z,98459.97
2023-05-07T08:58:59.577Z,98457.47
2023-05-07T09:01:27.955Z,98457.59
2023-05-07T09:03:55.936Z,98451.63
2023-05-07T09:06:23.739Z,98455.56
2023-05-07T09:08:52.122Z,98450.81
2023-05-07T09:11:25.817Z,98448.75
2023-05-07T09:13:57.030Z,98448.09
2023-05-07T09:16:25.962Z,98446.56
2023-05-07T09:18:54.979Z,98447.41
2023-05-07T09:21:23.900Z,98443.91
2023-05-07T09:23:56.667Z,98432.09
2023-05-07T09:26:29.822Z,98425.56
2023-05-07T09:28:56.481Z,98427.47
2023-05-07T09:31:24.712Z,98427.53
2023-05-07T09:33:53.802Z,98418.91
2023-05-07T09:36:20.315Z,98421.31
2023-05-07T09:38:47.349Z,98422.41
2023-05-07T09:41:14.045Z,98420.81
2023-05-07T09:43:55.044Z,98413.25
2023-05-07T09:46:31.240Z,98415.69
2023-05-07T09:49:02.728Z,98411.94
2023-05-07T09:51:44.236Z,98409.00
2023-05-07T09:54:11.667Z,98410.31
2023-05-07T09:56:42.617Z,98414.63
2023-05-07T09:59:14.113Z,98417.59
2023-05-07T10:01:45.643Z,98407.59
2023-05-07T10:04:15.072Z,98406.53
2023-05-07T10:06:44.421Z,98402.22
2023-05-07T10:09:12.059Z,98407.81
2023-05-07T10:11:39.090Z,98395.25
2023-05-07T10:14:09.068Z,98394.56
2023-05-07T10:16:37.586Z,98393.41
2023-05-07T10:19:10.803Z,98396.47
2023-05-07T10:21:39.827Z,98392.94
2023-05-07T10:24:15.023Z,98399.03
2023-05-07T10:26:46.459Z,98397.72
2023-05-07T10:29:25.592Z,98396.34
2023-05-07T10:31:59.198Z,98390.97
2023-05-07T10:34:30.745Z,98391.09
2023-05-07T10:36:58.019Z,98393.34
2023-05-07T10:39:26.464Z,98390.91
2023-05-07T10:41:53.727Z,98384.88
2023-05-07T10:44:30.356Z,98385.66
2023-05-07T10:47:13.394Z,98385.06
2023-05-07T10:49:46.376Z,98384.75
2023-05-07T10:52:27.589Z,98383.63
2023-05-07T10:55:16.327Z,98376.34
2023-05-07T10:57:45.119Z,98368.25
2023-05-07T11:00:22.450Z,98374.38
2023-05-07T11:03:02.774Z,98366.56
2023-05-07T11:05:38.298Z,98365.59
2023-05-07T11:08:15.199Z,98367.13
2023-05-07T11:10:53.725Z,98367.44
2023-05-07T11:13:53.170Z,98365.59
2023-05-07T11:16:44.291Z,98362.59
2023-05-07T11:19:54.903Z,98359.38
2023-05-07T11:22:42.609Z,98362.63
2023-05-07T11:25:23.274Z,98364.75
2023-05-07T11:27:56.426Z,98355.69
2023-05-07T11:30:23.484Z,98358.69
2023-05-07T11:32:50.155Z,98359.56
2023-05-07T11:35:18.839Z,98376.50
2023-05-07T11:37:48.317Z,98366.50
2023-05-07T11:40:15.786Z,98359.53
2023-05-07T11:42:44.117Z,98365.72
2023-05-07T11:45:11.339Z,98365.72
2023-05-07T11:47:38.216Z,98367.56
2023-05-07T11:50:09.041Z,98366.72
2023-05-07T11:52:36.926Z,98377.97
2023-05-07T11:55:07.040Z,98380.06
2023-05-07T11:57:36.624Z,98387.44
2023-05-07T12:00:06.565Z,98386.13
2023-05-07T12:02:43.296Z,98388.63
2023-05-07T12:05:10.915Z,98392.91
2023-05-07T12:07:37.704Z,98383.78
2023-05-07T12:10:07.763Z,98388.47
2023-05-07T12:12:46.861Z,98396.81
2023-05-07T12:15:17.265Z,98397.00
2023-05-07T12:17:47.082Z,98400.94
2023-05-07T12:20:13.767Z,98400.50
2023-05-07T12:22:40.376Z,98415.91
2023-05-07T12:25:07.936Z,98415.47
2023-05-07T12:27:38.152Z,98412.75
2023-05-07T12:30:04.825Z,98417.19
2023-05-07T12:32:31.551Z,98412.75
2023-05-07T12:34:58.070Z,98406.09
2023-05-07T12:37:27.552Z,98410.97
2023-05-07T12:40:12.237Z,98414.56
2023-05-07T12:42:41.084Z,98406.97
2023-05-07T12:45:17.265Z,98408.50
2023-05-07T12:47:47.918Z,98412.47
2023-05-07T12:50:16.399Z,98398.00
2023-05-07T12:52:45.275Z,98389.13
2023-05-07T12:55:15.983Z,98385.44
2023-05-07T12:57:46.370Z,98395.31
2023-05-07T13:00:13.898Z,98401.00
2023-05-07T13:02:42.798Z,98392.25
2023-05-07T13:05:09.916Z,98398.84
2023-05-07T13:07:37.943Z,98399.50
2023-05-07T13:10:05.291Z,98385.09
2023-05-07T13:12:31.897Z,98397.84
2023-05-07T13:14:58.425Z,98396.91
2023-05-07T13:17:24.958Z,98407.44
2023-05-07T13:19:51.503Z,98411.44
2023-05-07T13:22:17.977Z,98416.88
2023-05-07T13:24:44.713Z,98413.53
2023-05-07T13:27:11.304Z,98421.50
2023-05-07T13:29:37.752Z,98427.03
2023-05-07T13:32:04.539Z,98426.00
2023-05-07T13:34:31.133Z,98433.94
2023-05-07T13:36:57.665Z,98435.31
2023-05-07T13:39:24.117Z,98437.19
2023-05-07T13:41:50.690Z,98440.59
2023-05-07T13:44:17.167Z,98435.75
2023-05-07T13:46:43.793Z,98447.97
2023-05-07T13:49:12.083Z,98449.41
2023-05-07T13:51:38.585Z,98453.91
2023-05-07T13:54:05.412Z,98458.00
2023-05-07T13:56:32.359Z,98472.22
2023-05-07T13:59:00.801Z,98473.06
2023-05-07T14:01:28.553Z,98469.16
2023-05-07T14:03:56.452Z,98473.16
2023-05-07T14:06:22.954Z,98476.19
2023-05-07T14:08:49.804Z,98478.03
2023-05-07T14:11:16.341Z,98473.66
2023-05-07T14:13:42.815Z,98478.72
2023-05-07T14:16:09.316Z,98469.13
2023-05-07T14:18:37.931Z,98466.09
2023-05-07T14:21:13.613Z,98464.00
2023-05-07T14:23:40.334Z,98470.13
2023-05-07T14:26:13.364Z,98466.50
2023-05-07T14:28:40.629Z,98475.66
2023-05-07T14:31:07.483Z,98477.09
2023-05-07T14:33:33.997Z,98475.84
2023-05-07T14:36:00.486Z,98486.13
2023-05-07T14:38:26.930Z,98498.50
2023-05-07T14:40:56.680Z,98506.38
2023-05-07T14:43:23.442Z,98502.41
2023-05-07T14:45:50.995Z,98499.19
2023-05-07T14:48:20.994Z,98501.31
2023-05-07T14:50:49.142Z,98496.97
2023-05-07T14:53:16.591Z,98503.38
2023-05-07T14:55:43.143Z,98498.19
2023-05-07T14:58:09.760Z,98499.22
2023-05-07T15:00:36.212Z,98499.25
2023-05-07T15:03:08.253Z,98506.72
2023-05-07T15:05:35.362Z,98493.34
2023-05-07T15:08:01.849Z,98494.41
2023-05-07T15:10:28.412Z,98502.38
2023-05-07T15:12:55.059Z,98497.84
2023-05-07T15:15:21.703Z,98500.06
2023-05-07T15:17:48.330Z,98506.78
2023-05-07T15:20:14.849Z,98501.22
2023-05-07T15:22:42.701Z,98498.06
2023-05-07T15:25:10.488Z,98490.47
2023-05-07T15:27:37.436Z,98489.00
2023-05-07T15:30:04.384Z,98484.16
2023-05-07T15:32:32.084Z,98480.00
2023-05-07T15:34:58.604Z,98486.38
2023-05-07T15:37:25.054Z,98470.06
2023-05-07T15:39:51.618Z,98465.59
2023-05-07T15:42:18.167Z,98466.28
2023-05-07T15:44:44.696Z,98465.56
2023-05-07T15:47:11.183Z,98464.91
2023-05-07T15:49:37.676Z,98466.72
2023-05-07T15:52:04.305Z,98472.66
2023-05-07T15:54:32.361Z,98472.03
2023-05-07T15:56:58.877Z,98477.91
2023-05-07T15:59:25.401Z,98473.88
2023-05-07T16:01:52.496Z,98483.53
2023-05-07T16:04:19.150Z,98487.94
2023-05-07T16:06:47.338Z,98488.19
2023-05-07T16:09:14.614Z,98489.88
2023-05-07T16:11:41.094Z,98498.50
2023-05-07T16:14:07.733Z,98491.59
2023-05-07T16:16:35.218Z,98494.47
2023-05-07T16:19:02.119Z,98510.19
2023-05-07T16:21:28.938Z,98530.00
2023-05-07T16:23:55.425Z,98525.19
2023-05-07T16:26:22.094Z,98540.72
2023-05-07T16:28:48.667Z,98538.63
2023-05-07T16:31:15.198Z,98530.72
2023-05-07T16:33:41.681Z,98538.66
2023-05-07T16:36:08.304Z,98543.19
2023-05-07T16:38:34.939Z,98550.63
2023-05-07T16:41:01.901Z,98545.47
2023-05-07T16:43:28.444Z,98549.41
2023-05-07T16:45:55.095Z,98554.06
2023-05-07T16:48:25.758Z,98562.38
2023-05-07T16:50:52.303Z,98557.50
2023-05-07T16:53:19.782Z,98555.00
2023-05-07T16:55:46.316Z,98564.16
2023-05-07T16:58:12.930Z,98565.06
2023-05-07T17:00:49.891Z,98565.28
2023-05-07T17:03:17.068Z,98564.94
2023-05-07T17:05:43.654Z,98567.69
2023-05-07T17:08:10.144Z,98557.50
2023-05-07T17:10:36.615Z,98566.63
2023-05-07T17:13:03.575Z,98573.78
2023-05-07T17:15:30.253Z,98575.19
2023-05-07T17:17:56.856Z,98578.66
2023-05-07T17:20:23.455Z,98574.16
2023-05-07T17:22:49.914Z,98574.94
2023-05-07T17:25:21.669Z,98572.19
2023-05-07T17:27:48.101Z,98570.25
2023-05-07T17:30:15.725Z,98571.53
2023-05-07T17:32:42.654Z,98578.16
2023-05-07T17:35:09.734Z,98571.94
2023-05-07T17:37:36.189Z,98575.97
2023-05-07T17:40:03.156Z,98578.44
2023-05-07T17:42:29.628Z,98579.78
2023-05-07T17:44:56.367Z,98576.94
2023-05-07T17:47:22.910Z,98575.03
2023-05-07T17:49:49.392Z,98577.50
2023-05-07T17:52:16.022Z,98571.63
2023-05-07T17:54:42.526Z,98570.38
2023-05-07T17:57:09.017Z,98583.53
2023-05-07T17:59:35.482Z,98586.50
2023-05-07T18:02:01.946Z,98583.50
2023-05-07T18:04:28.454Z,98581.09
2023-05-07T18:06:54.918Z,98586.97
2023-05-07T18:09:21.397Z,98589.50
2023-05-07T18:11:47.862Z,98602.06
2023-05-07T18:14:14.539Z,98589.44
2023-05-07T18:16:41.239Z,98600.94
2023-05-07T18:19:07.863Z,98601.31
2023-05-07T18:21:34.331Z,98596.81
2023-05-07T18:24:00.864Z,98603.22
2023-05-07T18:26:27.699Z,98617.28
2023-05-07T18:28:54.176Z,98615.66
2023-05-07T18:31:21.362Z,98614.34
2023-05-07T18:33:47.827Z,98619.25
2023-05-07T18:36:14.318Z,98612.75
2023-05-07T18:38:42.605Z,98612.47
2023-05-07T18:41:09.272Z,98617.59
2023-05-07T18:43:35.867Z,98614.44
2023-05-07T18:46:02.423Z,98614.34
2023-05-07T18:48:28.939Z,98624.25
2023-05-07T18:50:55.489Z,98629.44
2023-05-07T18:53:21.979Z,98633.44
2023-05-07T18:55:52.586Z,98633.06
2023-05-07T18:58:20.136Z,98635.72
2023-05-07T19:00:50.369Z,98640.31
2023-05-07T19:03:17.445Z,98637.09
2023-05-07T19:05:45.296Z,98633.09
2023-05-07T19:08:11.887Z,98644.72
2023-05-07T19:10:38.805Z,98642.25
2023-05-07T19:13:05.567Z,98643.59
2023-05-07T19:15:32.112Z,98643.75
2023-05-07T19:17:58.635Z,98645.06
2023-05-07T19:20:25.272Z,98650.66
2023-05-07T19:22:51.748Z,98657.94
2023-05-07T19:25:18.532Z,98665.63
2023-05-07T19:27:45.115Z,98660.91
2023-05-07T19:30:11.847Z,98664.75
2023-05-07T19:32:38.960Z,98663.50
2023-05-07T19:35:05.769Z,98673.75
2023-05-07T19:37:32.277Z,98670.88
2023-05-07T19:40:04.338Z,98680.72
2023-05-07T19:42:31.371Z,98685.81
2023-05-07T19:44:58.006Z,98688.50
2023-05-07T19:47:24.508Z,98694.44
2023-05-07T19:49:50.971Z,98702.81
2023-05-07T19:52:17.437Z,98694.47
2023-05-07T19:54:43.892Z,98697.91
2023-05-07T19:57:10.485Z,98699.81
2023-05-07T19:59:36.947Z,98702.34
2023-05-07T20:02:03.452Z,98713.00
2023-05-07T20:04:33.033Z,98705.56
2023-05-07T20:06:59.966Z,98713.00
2023-05-07T20:09:26.508Z,98713.63
2023-05-07T20:11:53.046Z,98712.06
2023-05-07T20:14:19.498Z,98711.41
2023-05-07T20:16:46.016Z,98716.81
2023-05-07T20:19:12.497Z,98725.47
2023-05-07T20:21:38.945Z,98724.66
2023-05-07T20:24:06.987Z,98726.34
2023-05-07T20:26:33.484Z,98733.03
2023-05-07T20:28:59.935Z,98735.38
2023-05-07T20:31:26.391Z,98730.63
2023-05-07T20:33:52.833Z,98733.13
2023-05-07T20:36:19.350Z,98728.47
2023-05-07T20:38:45.857Z,98727.66
2023-05-07T20:41:14.989Z,98733.41
2023-05-07T20:43:41.949Z,98726.69
2023-05-07T20:46:08.605Z,98732.44
2023-05-07T20:48:35.967Z,98733.66
2023-05-07T20:51:03.685Z,98737.53
2023-05-07T20:53:31.262Z,98742.72
2023-05-07T20:55:58.783Z,98741.69
2023-05-07T20:58:27.699Z,98737.53
2023-05-07T21:00:55.020Z,98741.63
2023-05-07T21:03:21.957Z,98740.66
2023-05-07T21:05:53.129Z,98730.25
2023-05-07T21:08:20.318Z,98746.19
2023-05-07T21:10:47.274Z,98748.25
2023-05-07T21:13:14.068Z,98742.53
2023-05-07T21:15:43.667Z,98749.88
2023-05-07T21:18:11.232Z,98753.56
2023-05-07T21:20:38.056Z,98758.06
2023-05-07T21:23:04.825Z,98765.16
2023-05-07T21:25:31.394Z,98756.38
2023-05-07T21:27:57.849Z,98756.56
2023-05-07T21:30:24.317Z,98765.78
2023-05-07T21:32:50.940Z,98770.91
2023-05-07T21:35:17.407Z,98774.59
2023-05-07T21:37:43.867Z,98774.38
2023-05-07T21:40:10.938Z,98771.13
2023-05-07T21:42:37.615Z,98764.16
2023-05-07T21:45:07.267Z,98771.09
2023-05-07T21:47:33.774Z,98772.94
2023-05-07T21:50:01.086Z,98770.50
2023-05-07T21:52:27.636Z,98770.72
2023-05-07T21:54:54.220Z,98770.94
2023-05-07T21:57:21.122Z,98768.47
2023-05-07T21:59:47.991Z,98779.31
2023-05-07T22:02:14.547Z,98779.94
2023-05-07T22:04:41.014Z,98776.88
2023-05-07T22:07:07.529Z,98783.59
2023-05-07T22:09:34.039Z,98786.44
2023-05-07T22:12:00.584Z,98786.44
2023-05-07T22:14:27.044Z,98785.84
2023-05-07T22:16:53.583Z,98790.13
2023-05-07T22:19:20.340Z,98785.84
2023-05-07T22:21:46.828Z,98795.22
2023-05-07T22:24:13.296Z,98790.94
2023-05-07T22:26:39.823Z,98794.41
2023-05-07T22:29:06.358Z,98792.78
2023-05-07T22:31:32.971Z,98791.75
2023-05-07T22:33:59.402Z,98791.94
2023-05-07T22:36:25.868Z,98793.59
2023-05-07T22:38:52.335Z,98789.13
2023-05-07T22:41:18.905Z,98789.53
2023-05-07T22:43:45.424Z,98785.84
2023-05-07T22:46:11.963Z,98781.75
2023-05-07T22:48:38.494Z,98786.66
2023-05-07T22:51:04.954Z,98787.47
2023-05-07T22:53:31.417Z,98788.69
2023-05-07T22:55:57.874Z,98797.28
2023-05-07T22:58:24.510Z,98782.16
2023-05-07T23:00:50.978Z,98782.78
2023-05-07T23:03:17.684Z,98786.25
2023-05-07T23:05:44.415Z,98787.47
2023-05-07T23:08:11.378Z,98785.41
2023-05-07T23:10:37.883Z,98782.97
2023-05-07T23:13:04.677Z,98776.88
2023-05-07T23:15:33.187Z,98785.81
2023-05-07T23:18:00.073Z,98787.06
2023-05-07T23:20:26.868Z,98781.56
2023-05-07T23:22:53.389Z,98794.81
2023-05-07T23:25:20.089Z,98782.56
2023-05-07T23:27:49.635Z,98790.50
2023-05-07T23:30:16.149Z,98784.63
2023-05-07T23:32:42.689Z,98786.41
2023-05-07T23:35:09.539Z,98786.00
2023-05-07T23:37:36.122Z,98789.28
2023-05-07T23:40:02.640Z,98785.63
2023-05-07T23:42:29.075Z,98782.78
2023-05-07T23:44:55.509Z,98783.56
2023-05-07T23:47:22.136Z,98784.19
2023-05-07T23:49:48.604Z,98788.66
2023-05-07T23:52:15.090Z,98790.06
2023-05-07T23:54:41.566Z,98786.19
2023-05-07T23:57:08.009Z,98787.22
2023-05-07T23:59:37.476Z,98787.22
